»·PEaware :: N221XG KCMA-KWHP

N221XG :: KCMA-KWHP

FLIGHT INFORMATION

Flight Status: Arrived
Operator: Privately registered:
United States
More flights under this callsign
Pilot: Ryan L. (9775)
Aircraft: CESSNA 172 SKYHAWK
(C172)
More flights by this aircraft type
Origin: KCMA Camarillo
United States
Destination: KWHP Whiteman
United States
More flights between these airports :: More routes between these airports
Route: VNY255 GINNA
File this flight plan on PilotEdge
Remarks:
Altitude:
(Current/Filed)
5,000ft
Speed:
(Current/Filed)
110kts
Departed: 03-Feb-19 06:32 PM
Arrived: 03-Feb-19 07:02 PM
Distance/Time
Traveled:
34nm/0:30
Distance/Time
To Go:
Arrived

Flight Plot

Page will automatically refresh every two minutes.


Map Options




Map Legend


Flown Route
Filed Route
Departure Airport
Arrival Airport
Navaid (VOR, NDB)
Fix

Horizontal Profiles

Position Reports

Time Latitude Longitude Heading Altitude Ground
Speed
03-Feb-19 18:20 34.210430 -119.080265 271 81ft 0kts
03-Feb-19 18:21 34.210430 -119.080265 271 81ft 0kts
03-Feb-19 18:22 34.210430 -119.080265 271 81ft 0kts
03-Feb-19 18:23 34.210430 -119.080265 271 81ft 0kts
03-Feb-19 18:24 34.210430 -119.080265 271 81ft 0kts
03-Feb-19 18:25 34.210535 -119.080372 357 81ft 3kts
03-Feb-19 18:26 34.210796 -119.080378 359 81ft 0kts
03-Feb-19 18:27 34.211004 -119.084112 271 81ft 14kts
03-Feb-19 18:28 34.213018 -119.084485 359 81ft 0kts
03-Feb-19 18:29 34.213018 -119.084485 359 81ft 0kts
03-Feb-19 18:30 34.213413 -119.084503 358 81ft 9kts
03-Feb-19 18:31 34.214096 -119.099408 273 333ft 77kts
03-Feb-19 18:32 34.219971 -119.124177 291 1072ft 78kts
03-Feb-19 18:33 34.227252 -119.149003 286 1751ft 78kts
03-Feb-19 18:34 34.236052 -119.173358 290 2374ft 80kts
03-Feb-19 18:35 34.246451 -119.196798 291 2964ft 79kts
03-Feb-19 18:36 34.256504 -119.220525 293 3511ft 79kts
03-Feb-19 18:37 34.273975 -119.221436 80 3972ft 95kts
03-Feb-19 18:38 34.276628 -119.190331 92 4461ft 93kts
03-Feb-19 18:39 34.276695 -119.158803 94 4909ft 93kts
03-Feb-19 18:40 34.276674 -119.122981 96 5086ft 116kts
03-Feb-19 18:41 34.274523 -119.082905 99 5129ft 121kts
03-Feb-19 18:42 34.273391 -119.041928 94 5099ft 122kts
03-Feb-19 18:43 34.270583 -119.001137 104 5057ft 121kts
03-Feb-19 18:44 34.265499 -118.960945 103 5022ft 121kts
03-Feb-19 18:45 34.256953 -118.922179 124 4988ft 117kts
03-Feb-19 18:46 34.238258 -118.890104 132 4962ft 115kts
03-Feb-19 18:47 34.222304 -118.857259 89 4935ft 121kts
03-Feb-19 18:48 34.224928 -118.817194 83 4955ft 120kts
03-Feb-19 18:49 34.225914 -118.777200 93 4529ft 119kts
03-Feb-19 18:50 34.224524 -118.739365 97 4582ft 109kts
03-Feb-19 18:51 34.222139 -118.702235 95 4455ft 116kts
03-Feb-19 18:52 34.222943 -118.664195 92 4010ft 112kts
03-Feb-19 18:53 34.224131 -118.626796 92 3965ft 111kts
03-Feb-19 18:54 34.223581 -118.588945 90 4027ft 111kts
03-Feb-19 18:55 34.223770 -118.551497 93 3485ft 111kts
03-Feb-19 18:56 34.222738 -118.514640 92 3350ft 109kts
03-Feb-19 18:57 34.224883 -118.478402 75 3324ft 109kts
03-Feb-19 18:58 34.238402 -118.447105 56 2468ft 102kts
03-Feb-19 18:59 34.260802 -118.438597 46 1725ft 70kts
03-Feb-19 19:00 34.266372 -118.421226 131 1131ft 59kts
03-Feb-19 19:01 34.259459 -118.413120 48 1006ft 0kts
03-Feb-19 19:02 34.259698 -118.412760 72 1006ft 5kts
03-Feb-19 19:03 34.259652 -118.412598 128 1006ft 0kts
03-Feb-19 19:04 34.259652 -118.412598 128 1006ft 0kts
03-Feb-19 19:05 34.259652 -118.412598 128 1006ft 0kts
03-Feb-19 19:06 34.259652 -118.412598 128 1006ft 0kts
03-Feb-19 19:07 34.259652 -118.412598 128 1006ft 0kts
03-Feb-19 19:08 34.259652 -118.412598 128 1006ft 0kts
03-Feb-19 19:09 34.259652 -118.412598 128 1006ft 0kts
03-Feb-19 19:10 34.259652 -118.412598 128 1006ft 0kts
03-Feb-19 19:12 34.259652 -118.412598 128 1006ft 0kts
03-Feb-19 19:13 34.259652 -118.412598 128 1006ft 0kts
03-Feb-19 19:14 34.259652 -118.412598 128 1006ft 0kts
03-Feb-19 19:15 34.259652 -118.412598 128 1006ft 0kts
03-Feb-19 19:16 34.259652 -118.412598 128 1006ft 0kts

Navigation Log

Ident Type
Flight plan parsing failed, navigation log unavailable